Jewel Of The Seas — C6FW9 — position and weather

sailwx.info

Track history (hours):
 
Tides and Currents Weather Stations Pressure Air Temp Water Temp Dewpoint Dewpoint Depression Visibility Wind Speed Wind Dir Waves Ship Positions

Jewel Of The Seas

Operator: Royal Caribbean Cruises Ltd

Last reported at 2020-Apr-05 06:58 UTC. Time now 2020-Apr-05 07:05 UTC.
Position N 37°32' E 023°51'.

Length 290 m; draft 8.5 m.

Type: Ship. MMSI: 311583000.

Date/timePositionNaut miles runAvg speedWind from/ knotsBaromVisibWave heightAir tempDewpointWater temp
2020-Apr-05 06:58N 37°32' E 023°51'0 0.0
2020-Apr-05 06:28N 37°32' E 023°51'0 0.0
2020-Apr-05 01:28N 37°32' E 023°51'0 0.0
2020-Apr-04 23:04N 37°32' E 023°51'0 0.0
2020-Apr-04 21:43N 37°32' E 023°51'0 0.0
2020-Apr-04 21:01N 37°32' E 023°51'0 0.1
2020-Apr-04 16:31N 37°32' E 023°51'0 0.0
2020-Apr-04 15:52N 37°32' E 023°51'0 0.0
2020-Apr-04 14:58N 37°32' E 023°51'0 0.0
2020-Apr-04 14:13N 37°32' E 023°51'0 0.1
2020-Apr-04 13:55N 37°32' E 023°51'0 0.3
2020-Apr-04 13:28N 37°32' E 023°51'0 0.1
2020-Apr-04 11:19N 37°32' E 023°51'0 0.2
2020-Apr-04 10:58N 37°32' E 023°51'0 0.1
2020-Apr-04 10:28N 37°32' E 023°51'0 0.2
2020-Apr-04 09:52N 37°32' E 023°51'0 0.0
2020-Apr-04 07:16N 37°32' E 023°51'0 0.0
2020-Apr-04 02:52N 37°32' E 023°51'0 0.1
2020-Apr-04 02:28N 37°32' E 023°51'3 0.9
2020-Apr-03 23:00N 37°30' E 023°48'3 2.2 050 / 121018.610.8 13.0 13.0
2020-Apr-03 21:40N 37°32' E 023°51'0 0.3
2020-Apr-03 21:19N 37°32' E 023°51'0 0.0
2020-Apr-03 16:19N 37°32' E 023°51'0 0.0
2020-Apr-03 15:49N 37°32' E 023°51'0 0.1
2020-Apr-03 15:19N 37°32' E 023°51'0 0.1
2020-Apr-03 12:52N 37°32' E 023°51'0 0.0
2020-Apr-03 10:40N 37°32' E 023°51'0 0.0
2020-Apr-03 09:55N 37°32' E 023°51'0 0.0
2020-Apr-03 07:58N 37°32' E 023°51'0 0.1
2020-Apr-03 07:22N 37°32' E 023°51'0 0.0
2020-Apr-03 05:31N 37°32' E 023°51'0 0.1
2020-Apr-03 05:22N 37°32' E 023°51'0 0.0
2020-Apr-02 18:40N 37°32' E 023°51'0 0.0
2020-Apr-02 15:25N 37°32' E 023°51'0 0.0
2020-Apr-02 13:25N 37°32' E 023°51'0 0.0
2020-Apr-02 11:40N 37°32' E 023°51'0 0.1
2020-Apr-02 10:58N 37°32' E 023°51'0 0.1
2020-Apr-02 10:28N 37°32' E 023°51'0 0.0
2020-Apr-02 09:25N 37°32' E 023°51'0 0.1
2020-Apr-02 07:52N 37°32' E 023°51'0 0.2
2020-Apr-02 07:16N 37°32' E 023°51'0 0.0
2020-Apr-02 05:22N 37°32' E 023°51'0 0.0
2020-Apr-01 21:13N 37°32' E 023°51'0 0.0
2020-Apr-01 20:37N 37°32' E 023°51'0 0.0
2020-Apr-01 16:25N 37°32' E 023°51'2 0.4
2020-Apr-01 10:22N 37°30' E 023°52'0 0.0
2020-Apr-01 07:01N 37°30' E 023°52'0 0.0
2020-Mar-31 20:16N 37°30' E 023°52'2410.6
2020-Mar-31 18:00N 37°50' E 023°36'6 3.8
2020-Mar-31 16:28N 37°56' E 023°37'0 0.0
2020-Mar-31 15:58N 37°56' E 023°37'0 0.0
2020-Mar-31 11:28N 37°56' E 023°37'0 0.0
2020-Mar-31 10:58N 37°56' E 023°37'0 0.0
2020-Mar-31 09:58N 37°56' E 023°37'0 0.0
2020-Mar-31 09:28N 37°56' E 023°37'0 0.0
2020-Mar-31 08:28N 37°56' E 023°37'0 0.0
2020-Mar-31 07:28N 37°56' E 023°37'0 0.0
2020-Mar-31 06:28N 37°56' E 023°37'1 0.7
2020-Mar-31 05:00N 37°56' E 023°37'3 5.8
2020-Mar-31 04:31N 37°53' E 023°38'8 7.5
2020-Mar-31 03:30N 37°46' E 023°42'69 6.9
2020-Mar-30 17:30N 37°18' E 025°02'8 7.5
2020-Mar-30 16:31N 37°17' E 025°11'15 7.5
2020-Mar-30 14:31N 37°15' E 025°30'7 8.5
2020-Mar-30 13:39N 37°13' E 025°39'  
2020-Mar-28 08:30N 34°31' E 032°58'11 5.4
2020-Mar-28 06:28N 34°40' E 033°05'0 0.0
2020-Mar-28 05:52N 34°40' E 033°05'0 0.0
2020-Mar-28 02:58N 34°40' E 033°05'0 0.0
2020-Mar-28 02:28N 34°40' E 033°05'0 0.0
2020-Mar-28 01:58N 34°40' E 033°05'0 0.1
2020-Mar-28 00:58N 34°40' E 033°05'0 0.0
2020-Mar-27 22:28N 34°40' E 033°05'0 0.0
2020-Mar-27 21:28N 34°40' E 033°05'0 0.0
2020-Mar-27 16:58N 34°40' E 033°05'0 0.0
2020-Mar-27 16:28N 34°40' E 033°05'0 0.0
2020-Mar-27 15:58N 34°40' E 033°05'0 0.0
2020-Mar-27 14:46N 34°40' E 033°05'0 0.0
2020-Mar-27 13:22N 34°40' E 033°05'0 0.0
2020-Mar-27 12:28N 34°40' E 033°05'0 0.0
2020-Mar-27 11:58N 34°40' E 033°05'0 0.0
2020-Mar-27 10:28N 34°40' E 033°05'0 0.0
2020-Mar-27 09:58N 34°40' E 033°05'0 0.0
2020-Mar-27 07:58N 34°40' E 033°05'0 0.0
2020-Mar-27 05:55N 34°40' E 033°05'7 2.9
2020-Mar-27 03:30N 34°33' E 033°07'  
Track history (hours):
 
Tides and Currents Weather Stations Pressure Air Temp Water Temp Dewpoint Dewpoint Depression Visibility Wind Speed Wind Dir Waves Ship Positions

Jewel Of The Seas

Operator: Royal Caribbean Cruises Ltd

Last reported at 2020-Apr-05 06:58 UTC. Time now 2020-Apr-05 07:05 UTC.
Position N 37°32' E 023°51'.

Length 290 m; draft 8.5 m.

Type: Ship. MMSI: 311583000.

Date/timePositionNaut miles runAvg speedWind from/ knotsBaromVisibWave heightAir tempDewpointWater temp
2020-Apr-05 06:58N 37°32' E 023°51'0 0.0
2020-Apr-05 06:28N 37°32' E 023°51'0 0.0
2020-Apr-05 01:28N 37°32' E 023°51'0 0.0
2020-Apr-04 23:04N 37°32' E 023°51'0 0.0
2020-Apr-04 21:43N 37°32' E 023°51'0 0.0
2020-Apr-04 21:01N 37°32' E 023°51'0 0.1
2020-Apr-04 16:31N 37°32' E 023°51'0 0.0
2020-Apr-04 15:52N 37°32' E 023°51'0 0.0
2020-Apr-04 14:58N 37°32' E 023°51'0 0.0
2020-Apr-04 14:13N 37°32' E 023°51'0 0.1
2020-Apr-04 13:55N 37°32' E 023°51'0 0.3
2020-Apr-04 13:28N 37°32' E 023°51'0 0.1
2020-Apr-04 11:19N 37°32' E 023°51'0 0.2
2020-Apr-04 10:58N 37°32' E 023°51'0 0.1
2020-Apr-04 10:28N 37°32' E 023°51'0 0.2
2020-Apr-04 09:52N 37°32' E 023°51'0 0.0
2020-Apr-04 07:16N 37°32' E 023°51'0 0.0
2020-Apr-04 02:52N 37°32' E 023°51'0 0.1
2020-Apr-04 02:28N 37°32' E 023°51'3 0.9
2020-Apr-03 23:00N 37°30' E 023°48'3 2.2 050 / 121018.610.8 13.0 13.0
2020-Apr-03 21:40N 37°32' E 023°51'0 0.3
2020-Apr-03 21:19N 37°32' E 023°51'0 0.0
2020-Apr-03 16:19N 37°32' E 023°51'0 0.0
2020-Apr-03 15:49N 37°32' E 023°51'0 0.1
2020-Apr-03 15:19N 37°32' E 023°51'0 0.1
2020-Apr-03 12:52N 37°32' E 023°51'0 0.0
2020-Apr-03 10:40N 37°32' E 023°51'0 0.0
2020-Apr-03 09:55N 37°32' E 023°51'0 0.0
2020-Apr-03 07:58N 37°32' E 023°51'0 0.1
2020-Apr-03 07:22N 37°32' E 023°51'0 0.0
2020-Apr-03 05:31N 37°32' E 023°51'0 0.1
2020-Apr-03 05:22N 37°32' E 023°51'0 0.0
2020-Apr-02 18:40N 37°32' E 023°51'0 0.0
2020-Apr-02 15:25N 37°32' E 023°51'0 0.0
2020-Apr-02 13:25N 37°32' E 023°51'0 0.0
2020-Apr-02 11:40N 37°32' E 023°51'0 0.1
2020-Apr-02 10:58N 37°32' E 023°51'0 0.1
2020-Apr-02 10:28N 37°32' E 023°51'0 0.0
2020-Apr-02 09:25N 37°32' E 023°51'0 0.1
2020-Apr-02 07:52N 37°32' E 023°51'0 0.2
2020-Apr-02 07:16N 37°32' E 023°51'0 0.0
2020-Apr-02 05:22N 37°32' E 023°51'0 0.0
2020-Apr-01 21:13N 37°32' E 023°51'0 0.0
2020-Apr-01 20:37N 37°32' E 023°51'0 0.0
2020-Apr-01 16:25N 37°32' E 023°51'2 0.4
2020-Apr-01 10:22N 37°30' E 023°52'0 0.0
2020-Apr-01 07:01N 37°30' E 023°52'0 0.0
2020-Mar-31 20:16N 37°30' E 023°52'2410.6
2020-Mar-31 18:00N 37°50' E 023°36'6 3.8
2020-Mar-31 16:28N 37°56' E 023°37'0 0.0
2020-Mar-31 15:58N 37°56' E 023°37'0 0.0
2020-Mar-31 11:28N 37°56' E 023°37'0 0.0
2020-Mar-31 10:58N 37°56' E 023°37'0 0.0
2020-Mar-31 09:58N 37°56' E 023°37'0 0.0
2020-Mar-31 09:28N 37°56' E 023°37'0 0.0
2020-Mar-31 08:28N 37°56' E 023°37'0 0.0
2020-Mar-31 07:28N 37°56' E 023°37'0 0.0
2020-Mar-31 06:28N 37°56' E 023°37'1 0.7
2020-Mar-31 05:00N 37°56' E 023°37'3 5.8
2020-Mar-31 04:31N 37°53' E 023°38'8 7.5
2020-Mar-31 03:30N 37°46' E 023°42'69 6.9
2020-Mar-30 17:30N 37°18' E 025°02'8 7.5
2020-Mar-30 16:31N 37°17' E 025°11'15 7.5
2020-Mar-30 14:31N 37°15' E 025°30'7 8.5
2020-Mar-30 13:39N 37°13' E 025°39'  
2020-Mar-28 08:30N 34°31' E 032°58'11 5.4
2020-Mar-28 06:28N 34°40' E 033°05'0 0.0
2020-Mar-28 05:52N 34°40' E 033°05'0 0.0
2020-Mar-28 02:58N 34°40' E 033°05'0 0.0
2020-Mar-28 02:28N 34°40' E 033°05'0 0.0
2020-Mar-28 01:58N 34°40' E 033°05'0 0.1
2020-Mar-28 00:58N 34°40' E 033°05'0 0.0
2020-Mar-27 22:28N 34°40' E 033°05'0 0.0
2020-Mar-27 21:28N 34°40' E 033°05'0 0.0
2020-Mar-27 16:58N 34°40' E 033°05'0 0.0
2020-Mar-27 16:28N 34°40' E 033°05'0 0.0
2020-Mar-27 15:58N 34°40' E 033°05'0 0.0
2020-Mar-27 14:46N 34°40' E 033°05'0 0.0
2020-Mar-27 13:22N 34°40' E 033°05'0 0.0
2020-Mar-27 12:28N 34°40' E 033°05'0 0.0
2020-Mar-27 11:58N 34°40' E 033°05'0 0.0
2020-Mar-27 10:28N 34°40' E 033°05'0 0.0
2020-Mar-27 09:58N 34°40' E 033°05'0 0.0
2020-Mar-27 07:58N 34°40' E 033°05'0 0.0
2020-Mar-27 05:55N 34°40' E 033°05'7 2.9
2020-Mar-27 03:30N 34°33' E 033°07'  

Dump ship's entire track history